Search for airport 
image banner adimage banner adimage banner ad
image banner ad

PS80 - Robbins Nest

Located in Quakertown, United States

ICAO - PS80, IATA -

Data provided by Airmate  

General information

Coordinates: N40°22'9" W75°23'50"
Elevation is 450 feet MSL.
Magnetic variation is -11° East
View others Airports in Pennsylvania

Operational data

Special qualification required
Current time UTC:
Current local time:
Weather at : KUKT - Quakertown ( 7 km )
METAR: KUKT 091555Z AUTO 19008KT 10SM FEW080 FEW090 13/04 A3008 RMK A01
View NOTAMs / SUP AIP / TFR affecting this airport [VIEW]
Communications frequencies: [VIEW]

Runways:

Airport contact information

Address: Quakertown United States

Satellite view of PS80